Главная страница
METAR-TAF:

METAR-TAF

Аэропорты :

Эвенес, Норвегия

широта: 68-31N, долгота: 016-41E, высота над уровнем моря: 26 м

Текущие метеонаблюдения

Эта сводка был подготовлена 31 минут назад, в 16:20 UTC
Ветер 7 Узел от северно-северо-западный, изменяющийся между северо-западный и северо-северо-восточный
Температура 17°C
Влажность 52%
Давление 1012 hPa
Видимость 10 км и более
Нет облачности ниже 1500 м, и нет кучево-дождевой облачности

METAR: ENEV 221620Z 34007KT 310V020 CAVOK 17/07 Q1012 RMK WIND 1400FT 02008KT

Время: 18:51 (16:51 UTC)

Прогноз

Эта сводка был подготовлена 5 часа и 51 минут назад, в 11:00 UTC
Прогноз действительный с 22-го 12 UTC до 23-го 12 UTC
Ветер 5 Узел от южный-юго-западный
Видимость 10 км и более
небольшая облачность на высоте 2000 фута
Отдельные облака на высоте 5000 фута

TAF: ENEV 221100Z 2212/2312 21005KT 9999 FEW020 SCT050

Метеонаблюдения и прогнозы для более 4000 аэропортов (сводки METAR и TAF).

Имеющиеся станции представлены на карте желтыми и красными точками.

Чтобы увидеть название станции, наведите на нее мышь.

Затем щелкните, чтобы увидеть метеонаблюдения и метеопрогнозы.

Управление картой: чтобы увеличить масштаб, щелкните зеленые кнопки с черным крестиком; чтобы уменьшить масштаб, щелкните зеленую кнопку с тире; для просмотра соседних карт щелкайте зеленые стрелки.


METAR-TAF: